createdAt,value
2018-05-15T00:00:12.839Z,99318.40
2018-05-15T00:01:48.897Z,99313.97
2018-05-15T00:03:24.262Z,99318.70
2018-05-15T00:04:59.334Z,99319.30
2018-05-15T00:06:35.208Z,99319.67
2018-05-15T00:08:10.882Z,99329.94
2018-05-15T00:09:47.281Z,99326.06
2018-05-15T00:11:22.958Z,99331.33
2018-05-15T00:12:58.036Z,99331.20
2018-05-15T00:14:34.421Z,99324.50
2018-05-15T00:16:09.534Z,99326.34
2018-05-15T00:17:45.560Z,99327.14
2018-05-15T00:19:20.741Z,99328.47
2018-05-15T00:20:56.204Z,99330.20
2018-05-15T00:22:31.618Z,99324.92
2018-05-15T00:24:07.455Z,99326.66
2018-05-15T00:25:42.567Z,99320.64
2018-05-15T00:27:17.992Z,99319.59
2018-05-15T00:28:53.581Z,99317.09
2018-05-15T00:30:29.573Z,99314.17
2018-05-15T00:32:06.121Z,99319.52
2018-05-15T00:33:41.216Z,99318.89
2018-05-15T00:35:16.334Z,99317.34
2018-05-15T00:36:51.408Z,99318.23
2018-05-15T00:38:26.947Z,99321.40
2018-05-15T00:40:03.120Z,99322.66
2018-05-15T00:41:42.137Z,99321.44
2018-05-15T00:43:17.939Z,99326.20
2018-05-15T00:44:53.029Z,99324.65
2018-05-15T00:46:28.129Z,99331.27
2018-05-15T00:48:03.780Z,99329.73
2018-05-15T00:49:39.093Z,99332.38
2018-05-15T00:51:14.149Z,99332.59
2018-05-15T00:52:49.265Z,99334.25
2018-05-15T00:54:24.352Z,99328.83
2018-05-15T00:55:59.438Z,99329.50
2018-05-15T00:57:35.412Z,99323.92
2018-05-15T00:59:11.442Z,99323.41
2018-05-15T01:00:47.322Z,99328.56
2018-05-15T01:02:23.293Z,99324.64
2018-05-15T01:03:59.198Z,99320.49
2018-05-15T01:05:34.266Z,99323.42
2018-05-15T01:07:09.521Z,99324.89
2018-05-15T01:08:44.640Z,99325.31
2018-05-15T01:10:19.715Z,99324.88
2018-05-15T01:11:56.139Z,99324.58
2018-05-15T01:13:31.212Z,99323.31
2018-05-15T01:15:07.522Z,99326.42
2018-05-15T01:16:43.401Z,99331.34
2018-05-15T01:18:18.578Z,99324.08
2018-05-15T01:19:53.646Z,99324.33
2018-05-15T01:21:29.284Z,99326.33
2018-05-15T01:23:04.359Z,99331.91
2018-05-15T01:24:40.200Z,99330.78
2018-05-15T01:26:15.254Z,99326.97
2018-05-15T01:27:50.378Z,99331.23
2018-05-15T01:29:26.222Z,99331.30
2018-05-15T01:31:01.285Z,99335.08
2018-05-15T01:32:38.123Z,99335.70
2018-05-15T01:34:13.939Z,99335.75
2018-05-15T01:35:49.000Z,99328.94
2018-05-15T01:37:24.072Z,99329.52
2018-05-15T01:38:59.205Z,99327.59
2018-05-15T01:40:34.285Z,99334.43
2018-05-15T01:42:09.897Z,99335.52
2018-05-15T01:43:45.241Z,99336.64
2018-05-15T01:45:20.316Z,99336.83
2018-05-15T01:46:55.469Z,99331.00
2018-05-15T01:48:30.532Z,99331.80
2018-05-15T01:50:06.038Z,99341.62
2018-05-15T01:51:41.113Z,99331.58
2018-05-15T01:53:16.188Z,99349.94
2018-05-15T01:54:51.306Z,99343.02
2018-05-15T01:56:27.797Z,99342.61
2018-05-15T01:58:03.644Z,99342.39
2018-05-15T01:59:39.205Z,99338.84
2018-05-15T02:01:14.289Z,99341.33
2018-05-15T02:02:49.715Z,99338.34
2018-05-15T02:04:24.797Z,99332.62
2018-05-15T02:06:01.109Z,99329.45
2018-05-15T02:07:37.498Z,99333.96
2018-05-15T02:09:13.079Z,99328.29
2018-05-15T02:10:48.904Z,99331.57
2018-05-15T02:12:23.962Z,99333.28
2018-05-15T02:14:00.097Z,99334.74
2018-05-15T02:15:35.744Z,99333.40
2018-05-15T02:17:10.855Z,99333.71
2018-05-15T02:18:45.945Z,99340.38
2018-05-15T02:20:22.108Z,99332.61
2018-05-15T02:21:57.970Z,99336.63
2018-05-15T02:23:33.090Z,99335.66
2018-05-15T02:25:08.168Z,99337.98
2018-05-15T02:26:43.390Z,99337.77
2018-05-15T02:28:19.967Z,99339.36
2018-05-15T02:29:55.788Z,99342.96
2018-05-15T02:31:30.856Z,99345.11
2018-05-15T02:33:06.322Z,99337.25
2018-05-15T02:34:41.415Z,99342.62
2018-05-15T02:36:16.978Z,99336.78
2018-05-15T02:37:52.307Z,99334.58
2018-05-15T02:39:27.449Z,99330.83
2018-05-15T02:41:03.628Z,99335.58
2018-05-15T02:42:39.059Z,99331.41
2018-05-15T02:44:14.140Z,99334.52
2018-05-15T02:45:49.238Z,99337.30
2018-05-15T02:47:24.319Z,99339.66
2018-05-15T02:48:59.431Z,99338.49
2018-05-15T02:50:34.631Z,99330.36
2018-05-15T02:52:10.545Z,99335.31
2018-05-15T02:53:45.572Z,99332.34
2018-05-15T02:55:20.643Z,99342.09
2018-05-15T02:56:56.052Z,99342.47
2018-05-15T02:58:31.973Z,99343.36
2018-05-15T03:00:07.092Z,99341.81
2018-05-15T03:01:42.988Z,99341.10
2018-05-15T03:03:18.052Z,99339.13
2018-05-15T03:04:53.888Z,99343.35
2018-05-15T03:06:29.009Z,99344.20
2018-05-15T03:08:04.904Z,99342.27
2018-05-15T03:09:39.968Z,99339.51
2018-05-15T03:11:15.959Z,99344.77
2018-05-15T03:12:51.070Z,99340.53
2018-05-15T03:14:26.142Z,99339.54
2018-05-15T03:16:01.210Z,99340.34
2018-05-15T03:17:36.685Z,99341.33
2018-05-15T03:19:11.784Z,99337.84
2018-05-15T03:20:46.867Z,99340.58
2018-05-15T03:22:22.238Z,99346.93
2018-05-15T03:23:57.329Z,99338.84
2018-05-15T03:25:33.156Z,99346.59
2018-05-15T03:27:08.987Z,99348.33
2018-05-15T03:28:44.540Z,99347.30
2018-05-15T03:30:19.605Z,99348.19
2018-05-15T03:31:54.765Z,99352.56
2018-05-15T03:33:29.833Z,99352.14
2018-05-15T03:35:06.084Z,99354.53
2018-05-15T03:36:42.433Z,99355.09
2018-05-15T03:38:18.319Z,99355.93
2018-05-15T03:39:54.160Z,99353.82
2018-05-15T03:41:31.307Z,99348.22
2018-05-15T03:43:07.515Z,99352.77
2018-05-15T03:44:43.408Z,99356.30
2018-05-15T03:46:18.474Z,99361.24
2018-05-15T03:47:54.312Z,99354.95
2018-05-15T03:49:29.434Z,99359.27
2018-05-15T03:51:04.760Z,99360.66
2018-05-15T03:52:39.840Z,99361.97
2018-05-15T03:54:15.174Z,99364.05
2018-05-15T03:55:51.412Z,99369.67
2018-05-15T03:57:26.474Z,99365.02
2018-05-15T03:59:01.556Z,99368.17
2018-05-15T04:00:54.348Z,99367.52
2018-05-15T04:02:47.045Z,99374.09
2018-05-15T04:04:39.837Z,99378.92
2018-05-15T04:06:32.456Z,99372.73
2018-05-15T04:08:17.660Z,99380.91
2018-05-15T04:09:52.772Z,99385.98
2018-05-15T04:11:27.848Z,99384.85
2018-05-15T04:13:03.252Z,99389.64
2018-05-15T04:14:38.782Z,99392.05
2018-05-15T04:16:14.610Z,99391.86
2018-05-15T04:17:50.120Z,99394.83
2018-05-15T04:19:25.179Z,99386.55
2018-05-15T04:21:00.278Z,99392.75
2018-05-15T04:22:36.106Z,99384.57
2018-05-15T04:24:11.167Z,99385.20
2018-05-15T04:25:46.279Z,99389.61
2018-05-15T04:27:21.339Z,99391.89
2018-05-15T04:28:56.416Z,99390.62
2018-05-15T04:30:31.682Z,99388.12
2018-05-15T04:32:07.824Z,99386.66
2018-05-15T04:33:43.709Z,99392.03
2018-05-15T04:35:19.957Z,99387.84
2018-05-15T04:36:55.072Z,99385.30
2018-05-15T04:38:30.788Z,99382.91
2018-05-15T04:40:06.199Z,99387.06
2018-05-15T04:41:41.759Z,99384.04
2018-05-15T04:43:17.734Z,99385.81
2018-05-15T04:44:53.570Z,99394.11
2018-05-15T04:46:30.334Z,99388.38
2018-05-15T04:48:06.142Z,99388.36
2018-05-15T04:49:41.870Z,99392.40
2018-05-15T04:51:16.956Z,99394.47
2018-05-15T04:52:52.025Z,99392.34
2018-05-15T04:54:27.152Z,99395.03
2018-05-15T04:56:03.633Z,99395.16
2018-05-15T04:57:38.790Z,99399.69
2018-05-15T04:59:13.892Z,99403.31
2018-05-15T05:00:48.998Z,99400.36
2018-05-15T05:02:24.849Z,99405.34
2018-05-15T05:04:01.255Z,99392.88
2018-05-15T05:05:36.677Z,99401.88
2018-05-15T05:07:12.078Z,99407.18
2018-05-15T05:08:47.244Z,99403.52
2018-05-15T05:10:22.677Z,99407.48
2018-05-15T05:12:01.332Z,99408.01
2018-05-15T05:13:36.495Z,99402.88
2018-05-15T05:15:13.863Z,99400.72
2018-05-15T05:16:49.434Z,99398.84
2018-05-15T05:18:24.613Z,99412.53
2018-05-15T05:20:00.596Z,99411.05
2018-05-15T05:21:36.530Z,99418.55
2018-05-15T05:23:15.095Z,99408.88
2018-05-15T05:24:54.872Z,99408.20
2018-05-15T05:26:33.071Z,99407.55
2018-05-15T05:28:08.144Z,99414.36
2018-05-15T05:29:43.247Z,99410.72
2018-05-15T05:31:18.350Z,99414.99
2018-05-15T05:32:54.362Z,99407.36
2018-05-15T05:34:29.464Z,99408.83
2018-05-15T05:36:04.996Z,99404.34
2018-05-15T05:37:40.101Z,99404.47
2018-05-15T05:39:15.175Z,99408.45
2018-05-15T05:40:50.258Z,99407.98
2018-05-15T05:42:26.344Z,99413.51
2018-05-15T05:44:02.322Z,99410.75
2018-05-15T05:45:38.206Z,99410.03
2018-05-15T05:47:13.290Z,99411.89
2018-05-15T05:48:49.842Z,99414.05
2018-05-15T05:50:24.930Z,99413.26
2018-05-15T05:52:00.037Z,99417.41
2018-05-15T05:53:35.562Z,99415.65
2018-05-15T05:55:11.227Z,99410.98
2018-05-15T05:56:46.300Z,99416.13
2018-05-15T05:58:22.577Z,99414.66
2018-05-15T05:59:57.679Z,99416.82
2018-05-15T06:01:33.385Z,99415.11
2018-05-15T06:03:08.484Z,99420.37
2018-05-15T06:04:43.565Z,99416.54
2018-05-15T06:06:19.239Z,99414.68
2018-05-15T06:25:33.368Z,99412.74
2018-05-15T06:44:48.170Z,99403.59
2018-05-15T06:57:40.237Z,99408.41
2018-05-15T06:59:15.379Z,99415.77
2018-05-15T07:00:50.466Z,99410.14
2018-05-15T07:02:25.589Z,99405.08
2018-05-15T07:04:01.252Z,99399.69
2018-05-15T07:05:36.547Z,99401.01
2018-05-15T07:07:11.644Z,99398.46
2018-05-15T07:08:47.765Z,99398.23
2018-05-15T07:10:22.903Z,99397.09
2018-05-15T07:11:58.036Z,99385.38
2018-05-15T07:13:33.644Z,99389.19
2018-05-15T07:15:08.716Z,99391.12
2018-05-15T07:16:44.252Z,99390.80
2018-05-15T07:18:19.392Z,99389.84
2018-05-15T07:19:55.264Z,99396.59
2018-05-15T07:21:30.337Z,99399.94
2018-05-15T07:23:06.300Z,99399.81
2018-05-15T07:24:41.384Z,99404.31
2018-05-15T07:26:16.623Z,99412.25
2018-05-15T07:27:52.906Z,99402.14
2018-05-15T07:29:27.997Z,99400.96
2018-05-15T07:31:03.530Z,99400.09
2018-05-15T07:32:39.195Z,99391.75
2018-05-15T07:34:14.301Z,99387.01
2018-05-15T07:35:50.162Z,99382.39
2018-05-15T07:37:25.856Z,99392.39
2018-05-15T07:39:00.968Z,99386.24
2018-05-15T07:40:36.788Z,99390.26
2018-05-15T07:42:12.193Z,99391.48
2018-05-15T07:43:47.279Z,99392.02
2018-05-15T07:45:23.253Z,99395.81
2018-05-15T07:47:00.311Z,99394.78
2018-05-15T07:48:37.153Z,99393.27
2018-05-15T07:50:12.221Z,99384.84
2018-05-15T07:51:47.966Z,99389.50
2018-05-15T07:53:23.846Z,99392.23
2018-05-15T07:54:58.965Z,99385.70
2018-05-15T07:56:34.083Z,99384.34
2018-05-15T07:58:10.404Z,99395.25
2018-05-15T07:59:45.512Z,99388.95
2018-05-15T08:01:20.612Z,99392.64
2018-05-15T08:02:55.706Z,99387.82
2018-05-15T08:04:31.732Z,99390.98
2018-05-15T08:06:07.913Z,99393.93
2018-05-15T08:07:43.838Z,99388.21
2018-05-15T08:09:18.990Z,99394.25
2018-05-15T08:10:58.648Z,99389.42
2018-05-15T08:12:33.692Z,99389.13
2018-05-15T08:14:09.825Z,99390.24
2018-05-15T08:15:44.954Z,99394.11
2018-05-15T08:17:20.787Z,99390.06
2018-05-15T08:18:55.885Z,99391.27
2018-05-15T08:20:30.994Z,99391.86
2018-05-15T08:22:06.412Z,99398.03
2018-05-15T08:23:41.556Z,99393.28
2018-05-15T08:25:16.729Z,99397.03
2018-05-15T08:26:52.676Z,99381.06
2018-05-15T08:28:27.759Z,99387.85
2018-05-15T08:30:03.562Z,99384.95
2018-05-15T08:31:40.107Z,99377.45
2018-05-15T08:33:15.244Z,99383.11
2018-05-15T08:34:50.810Z,99376.46
2018-05-15T08:36:25.897Z,99377.88
2018-05-15T08:38:01.005Z,99375.77
2018-05-15T08:39:37.428Z,99378.78
2018-05-15T08:41:12.533Z,99370.98
2018-05-15T08:42:48.020Z,99362.39
2018-05-15T08:44:23.114Z,99371.86
2018-05-15T08:45:59.380Z,99369.95
2018-05-15T08:47:35.054Z,99373.42
2018-05-15T08:49:10.786Z,99370.96
2018-05-15T08:50:45.890Z,99374.10
2018-05-15T08:52:20.991Z,99374.00
2018-05-15T08:53:56.084Z,99380.84
2018-05-15T08:55:31.854Z,99383.38
2018-05-15T08:57:11.833Z,99379.94
2018-05-15T08:58:46.914Z,99387.91
2018-05-15T09:00:22.805Z,99388.59
2018-05-15T09:01:57.924Z,99385.19
2018-05-15T09:03:33.363Z,99381.42
2018-05-15T09:05:09.264Z,99383.16
2018-05-15T09:06:44.727Z,99384.66
2018-05-15T09:08:19.797Z,99384.75
2018-05-15T09:09:55.672Z,99394.27
2018-05-15T09:11:30.758Z,99397.07
2018-05-15T09:13:06.181Z,99395.17
2018-05-15T09:14:42.562Z,99397.08
2018-05-15T09:16:17.635Z,99387.25
2018-05-15T09:17:53.081Z,99390.08
2018-05-15T09:19:28.996Z,99390.16
2018-05-15T09:21:04.165Z,99386.88
2018-05-15T09:22:39.558Z,99386.94
2018-05-15T09:24:15.013Z,99387.42
2018-05-15T09:25:50.473Z,99386.38
2018-05-15T09:27:25.554Z,99381.52
2018-05-15T09:29:00.703Z,99384.44
2018-05-15T09:30:36.619Z,99385.78
2018-05-15T09:32:12.495Z,99387.04
2018-05-15T09:33:48.162Z,99384.05
2018-05-15T09:35:23.275Z,99383.91
2018-05-15T09:36:59.281Z,99383.72
2018-05-15T09:38:34.821Z,99378.01
2018-05-15T09:40:09.909Z,99374.02
2018-05-15T09:41:45.055Z,99371.72
2018-05-15T09:45:52.533Z,99371.45
2018-05-15T09:47:27.650Z,99369.34
2018-05-15T09:49:03.492Z,99362.69
2018-05-15T09:50:38.580Z,99370.34
2018-05-15T09:52:13.703Z,99367.11
2018-05-15T09:53:48.827Z,99363.59
2018-05-15T09:55:23.945Z,99363.57
2018-05-15T09:57:04.003Z,99361.86
2018-05-15T09:58:40.164Z,99366.52
2018-05-15T10:00:15.272Z,99365.84
2018-05-15T10:01:51.162Z,99365.45
2018-05-15T10:03:26.267Z,99364.50
2018-05-15T10:05:01.433Z,99364.56
2018-05-15T10:06:49.025Z,99364.36
2018-05-15T10:08:24.103Z,99361.58
2018-05-15T10:09:59.896Z,99360.02
2018-05-15T10:11:34.960Z,99355.78
2018-05-15T10:13:10.064Z,99349.27
2018-05-15T10:14:45.935Z,99348.17
2018-05-15T10:16:21.082Z,99351.33
2018-05-15T10:17:56.975Z,99349.57
2018-05-15T10:19:32.041Z,99344.39
2018-05-15T10:21:07.775Z,99350.44
2018-05-15T10:22:42.996Z,99348.09
2018-05-15T10:24:18.512Z,99350.26
2018-05-15T10:25:53.594Z,99358.02
2018-05-15T10:27:30.248Z,99341.14
2018-05-15T10:29:07.057Z,99340.44
2018-05-15T10:30:42.520Z,99329.14
2018-05-15T10:32:19.017Z,99340.22
2018-05-15T10:33:54.041Z,99334.03
2018-05-15T10:35:29.129Z,99339.67
2018-05-15T10:37:05.854Z,99328.84
2018-05-15T10:38:40.977Z,99328.22
2018-05-15T10:40:18.144Z,99330.95
2018-05-15T10:41:53.233Z,99323.51
2018-05-15T10:43:29.339Z,99320.39
2018-05-15T10:45:05.924Z,99323.80
2018-05-15T10:46:42.319Z,99322.45
2018-05-15T10:48:17.435Z,99322.78
2018-05-15T10:49:53.104Z,99320.17
2018-05-15T10:51:32.351Z,99322.53
2018-05-15T10:53:24.520Z,99316.72
2018-05-15T10:54:59.601Z,99311.05
2018-05-15T10:56:47.227Z,99313.92
2018-05-15T10:58:22.296Z,99312.09
2018-05-15T10:59:57.367Z,99301.31
2018-05-15T11:01:33.221Z,99304.93
2018-05-15T11:03:08.309Z,99304.77
2018-05-15T11:04:44.400Z,99305.99
2018-05-15T11:06:19.462Z,99314.30
2018-05-15T11:07:54.592Z,99303.81
2018-05-15T11:09:29.753Z,99305.56
2018-05-15T11:11:05.952Z,99309.59
2018-05-15T11:12:41.091Z,99305.61
2018-05-15T11:14:16.230Z,99306.02
2018-05-15T11:15:52.345Z,99319.80
2018-05-15T11:17:27.434Z,99322.77
2018-05-15T11:21:36.642Z,99311.03
2018-05-15T11:23:29.359Z,99317.88
2018-05-15T11:25:06.826Z,99307.08
2018-05-15T11:26:42.076Z,99298.11
2018-05-15T11:28:17.376Z,99300.18
2018-05-15T11:29:52.857Z,99293.41
2018-05-15T11:31:28.042Z,99296.09
2018-05-15T11:33:03.630Z,99290.53
2018-05-15T11:34:39.299Z,99284.85
2018-05-15T11:36:14.468Z,99282.85
2018-05-15T11:37:49.586Z,99280.95
2018-05-15T11:39:25.916Z,99276.13
2018-05-15T11:41:01.942Z,99271.89
2018-05-15T11:42:37.277Z,99275.53
2018-05-15T11:44:12.366Z,99271.31
2018-05-15T11:45:48.041Z,99275.63
2018-05-15T11:47:23.188Z,99277.03
2018-05-15T11:48:58.933Z,99276.09
2018-05-15T11:50:34.047Z,99274.78
2018-05-15T11:52:09.426Z,99276.37
2018-05-15T11:53:44.639Z,99267.98
2018-05-15T11:55:23.085Z,99268.97
2018-05-15T11:56:58.182Z,99263.70
2018-05-15T11:58:33.274Z,99262.98
2018-05-15T12:00:10.687Z,99248.09
2018-05-15T12:01:45.939Z,99250.93
2018-05-15T12:03:21.478Z,99250.25
2018-05-15T12:04:56.566Z,99238.09
2018-05-15T12:06:32.527Z,99233.89
2018-05-15T12:08:10.201Z,99240.83
2018-05-15T12:09:45.997Z,99236.48
2018-05-15T12:11:21.795Z,99233.60
2018-05-15T12:13:00.900Z,99235.42
2018-05-15T12:14:36.760Z,99232.39
2018-05-15T12:16:14.380Z,99221.87
2018-05-15T12:17:50.565Z,99224.05
2018-05-15T12:19:26.775Z,99219.41
2018-05-15T12:21:02.754Z,99211.59
2018-05-15T12:22:40.945Z,99217.57
2018-05-15T12:24:16.293Z,99215.03
2018-05-15T12:25:51.395Z,99210.98
2018-05-15T12:27:26.473Z,99216.72
2018-05-15T12:29:03.424Z,99219.48
2018-05-15T12:30:39.039Z,99207.72
2018-05-15T12:32:15.357Z,99208.87
2018-05-15T12:33:50.450Z,99205.41
2018-05-15T12:35:30.798Z,99195.21
2018-05-15T12:37:14.757Z,99191.11
2018-05-15T12:38:51.714Z,99189.91
2018-05-15T12:40:27.627Z,99184.55
2018-05-15T12:42:02.820Z,99194.30
2018-05-15T12:43:39.492Z,99182.80
2018-05-15T12:45:18.498Z,99186.48
2018-05-15T12:46:53.589Z,99183.14
2018-05-15T12:48:29.267Z,99180.20
2018-05-15T12:50:04.446Z,99175.39
2018-05-15T12:51:40.327Z,99176.36
2018-05-15T12:53:22.704Z,99173.14
2018-05-15T12:54:57.841Z,99173.38
2018-05-15T12:56:33.681Z,99175.22
2018-05-15T12:58:15.273Z,99174.47
2018-05-15T12:59:51.405Z,99177.77
2018-05-15T13:01:26.658Z,99193.86
2018-05-15T13:03:05.437Z,99218.52
2018-05-15T13:04:40.785Z,99216.18
2018-05-15T13:06:15.846Z,99226.64
2018-05-15T13:07:50.968Z,99202.33
2018-05-15T13:09:26.065Z,99221.20
2018-05-15T13:11:01.149Z,99225.83
2018-05-15T13:12:36.895Z,99242.44
2018-05-15T13:14:12.766Z,99236.10
2018-05-15T13:15:47.911Z,99235.99
2018-05-15T13:17:24.270Z,99226.29
2018-05-15T13:18:59.496Z,99216.42
2018-05-15T13:20:35.557Z,99226.17
2018-05-15T13:22:11.391Z,99215.24
2018-05-15T13:23:46.483Z,99205.54
2018-05-15T13:25:21.964Z,99209.02
2018-05-15T13:26:57.367Z,99200.41
2018-05-15T13:28:32.494Z,99214.95
2018-05-15T13:30:07.570Z,99208.16
2018-05-15T13:31:42.905Z,99204.05
2018-05-15T13:33:22.837Z,99200.98
2018-05-15T13:34:57.926Z,99214.77
2018-05-15T13:36:33.023Z,99216.78
2018-05-15T13:38:08.895Z,99208.75
2018-05-15T13:39:44.693Z,99211.45
2018-05-15T13:41:20.583Z,99207.05
2018-05-15T13:42:57.170Z,99204.39
2018-05-15T13:44:32.244Z,99207.14
2018-05-15T13:46:09.595Z,99198.29
2018-05-15T13:47:45.850Z,99206.06
2018-05-15T13:49:24.682Z,99209.30
2018-05-15T13:51:00.531Z,99203.78
2018-05-15T13:52:36.799Z,99197.19
2018-05-15T13:54:12.431Z,99198.44
2018-05-15T13:55:47.494Z,99203.46
2018-05-15T13:57:22.587Z,99202.56
2018-05-15T13:58:57.709Z,99210.80
2018-05-15T14:00:32.806Z,99211.55
2018-05-15T14:02:07.872Z,99210.88
2018-05-15T14:03:42.944Z,99212.06
2018-05-15T14:05:18.057Z,99215.17
2018-05-15T14:06:53.117Z,99209.38
2018-05-15T14:08:29.333Z,99212.58
2018-05-15T14:10:05.362Z,99207.45
2018-05-15T14:11:44.764Z,99207.28
2018-05-15T14:13:20.445Z,99206.05
2018-05-15T14:14:56.327Z,99213.89
2018-05-15T14:16:31.428Z,99211.20
2018-05-15T14:18:06.498Z,99226.64
2018-05-15T14:19:41.564Z,99232.20
2018-05-15T14:21:17.380Z,99257.84
2018-05-15T14:22:53.439Z,99268.50
2018-05-15T14:24:29.164Z,99278.23
2018-05-15T14:26:04.996Z,99262.02
2018-05-15T14:27:41.256Z,99295.55
2018-05-15T14:29:16.345Z,99277.30
2018-05-15T14:30:51.465Z,99316.67
2018-05-15T14:32:26.559Z,99302.53
2018-05-15T14:34:02.672Z,99304.84
2018-05-15T14:35:38.642Z,99300.12
2018-05-15T14:37:13.713Z,99304.31
2018-05-15T14:38:49.012Z,99296.64
2018-05-15T14:40:24.090Z,99296.00
2018-05-15T14:42:17.993Z,99280.55
2018-05-15T14:43:53.105Z,99270.69
2018-05-15T14:45:28.903Z,99256.50
2018-05-15T14:47:04.360Z,99242.94
2018-05-15T14:48:39.471Z,99234.61
2018-05-15T14:50:15.292Z,99231.86
2018-05-15T14:51:50.360Z,99222.01
2018-05-15T14:53:25.440Z,99191.00
2018-05-15T14:55:01.275Z,99202.88
2018-05-15T14:56:36.805Z,99211.62
2018-05-15T14:58:12.065Z,99220.83
2018-05-15T14:59:47.277Z,99211.83
2018-05-15T15:01:22.766Z,99210.64
2018-05-15T15:02:58.213Z,99235.71
2018-05-15T15:04:33.293Z,99221.25
2018-05-15T15:06:08.400Z,99232.70
2018-05-15T15:07:44.563Z,99230.70
2018-05-15T15:09:19.687Z,99239.28
2018-05-15T15:10:54.802Z,99245.15
2018-05-15T15:12:29.873Z,99253.89
2018-05-15T15:14:05.407Z,99253.27
2018-05-15T15:15:41.510Z,99260.16
2018-05-15T15:17:16.611Z,99258.16
2018-05-15T15:18:51.654Z,99255.70
2018-05-15T15:20:27.488Z,99264.00
2018-05-15T15:22:04.624Z,99258.83
2018-05-15T15:23:39.711Z,99259.06
2018-05-15T15:25:14.822Z,99268.53
2018-05-15T15:26:50.652Z,99273.00
2018-05-15T15:28:25.741Z,99276.08
2018-05-15T15:30:01.084Z,99279.33
2018-05-15T15:31:36.652Z,99290.97
2018-05-15T15:33:13.844Z,99294.17
2018-05-15T15:35:01.881Z,99287.77
2018-05-15T15:36:37.509Z,99285.64
2018-05-15T15:38:12.784Z,99288.55
2018-05-15T15:39:47.897Z,99285.97
2018-05-15T15:41:23.007Z,99279.20
2018-05-15T15:42:59.462Z,99272.41
2018-05-15T15:44:34.584Z,99276.39
2018-05-15T15:46:09.703Z,99276.59
2018-05-15T15:47:44.798Z,99265.22
2018-05-15T15:49:19.953Z,99269.63
2018-05-15T15:50:55.488Z,99265.84
2018-05-15T15:52:48.483Z,99256.63
2018-05-15T15:54:27.031Z,99245.34
2018-05-15T15:56:05.188Z,99237.72
2018-05-15T15:57:46.592Z,99231.80
2018-05-15T15:59:23.462Z,99234.04
2018-05-15T16:01:02.814Z,99230.90
2018-05-15T16:02:38.332Z,99224.91
2018-05-15T16:04:13.496Z,99222.76
2018-05-15T16:05:49.613Z,99218.59
2018-05-15T16:07:24.716Z,99221.66
2018-05-15T16:08:59.848Z,99216.98
2018-05-15T16:10:34.996Z,99209.84
2018-05-15T16:12:10.082Z,99198.72
2018-05-15T16:13:45.284Z,99196.35
2018-05-15T16:15:20.974Z,99196.95
2018-05-15T16:16:56.922Z,99195.69
2018-05-15T16:18:33.946Z,99192.40
2018-05-15T16:20:14.357Z,99190.02
2018-05-15T16:21:49.450Z,99185.98
2018-05-15T16:23:28.138Z,99184.72
2018-05-15T16:25:07.700Z,99189.50
2018-05-15T16:26:51.197Z,99182.97
2018-05-15T16:28:43.890Z,99175.25
2018-05-15T16:30:20.329Z,99171.44
2018-05-15T16:31:59.611Z,99170.36
2018-05-15T16:33:36.882Z,99176.33
2018-05-15T16:35:14.808Z,99174.20
2018-05-15T16:36:53.680Z,99181.47
2018-05-15T16:40:52.961Z,99178.63
2018-05-15T16:42:28.699Z,99178.63
2018-05-15T16:44:04.693Z,99190.23
2018-05-15T16:45:39.923Z,99183.03
2018-05-15T16:47:15.070Z,99181.95
2018-05-15T16:48:50.213Z,99180.67
2018-05-15T16:50:25.354Z,99177.73
2018-05-15T16:52:02.275Z,99168.68
2018-05-15T16:53:39.055Z,99172.30
2018-05-15T16:55:16.523Z,99169.47
2018-05-15T16:56:55.261Z,99175.52
2018-05-15T16:58:30.448Z,99167.26
2018-05-15T17:00:07.175Z,99170.42
2018-05-15T17:01:44.217Z,99168.97
2018-05-15T17:03:19.399Z,99165.23
2018-05-15T17:04:55.474Z,99125.59
2018-05-15T17:06:30.690Z,99170.66
2018-05-15T17:08:06.718Z,99173.31
2018-05-15T17:09:48.995Z,99169.75
2018-05-15T17:13:50.635Z,99161.31
2018-05-15T17:22:51.765Z,99158.41
2018-05-15T17:24:31.225Z,99153.66
2018-05-15T17:26:07.736Z,99152.38
2018-05-15T17:27:47.503Z,99148.55
2018-05-15T17:29:24.332Z,99153.09
2018-05-15T17:31:00.548Z,99154.73
2018-05-15T17:32:37.934Z,99152.44
2018-05-15T17:34:13.516Z,99154.36
2018-05-15T17:35:51.096Z,99149.78
2018-05-15T17:41:32.821Z,99150.36
2018-05-15T17:43:11.448Z,99150.47
2018-05-15T17:44:54.741Z,99150.42
2018-05-15T17:46:55.295Z,99163.48
2018-05-15T17:48:52.217Z,99166.88
2018-05-15T17:52:47.789Z,99175.72
2018-05-15T17:54:24.456Z,99176.84
2018-05-15T17:56:06.746Z,99185.83
2018-05-15T17:57:43.673Z,99178.11
2018-05-15T17:59:19.025Z,99184.48
2018-05-15T18:03:13.396Z,99193.98
2018-05-15T18:04:54.681Z,99195.59
2018-05-15T18:06:41.076Z,99205.81
2018-05-15T18:08:16.404Z,99210.57
2018-05-15T18:09:51.598Z,99210.08
2018-05-15T18:11:26.771Z,99208.31
2018-05-15T18:13:02.925Z,99200.28
2018-05-15T18:16:31.013Z,99204.44
2018-05-15T18:18:10.018Z,99215.02
2018-05-15T18:22:10.474Z,99209.15
2018-05-15T18:24:01.700Z,99207.86
2018-05-15T18:31:56.892Z,99213.77
2018-05-15T18:33:38.799Z,99208.28
2018-05-15T18:35:21.474Z,99209.80
2018-05-15T18:37:14.271Z,99206.28
2018-05-15T18:38:51.411Z,99212.54
2018-05-15T18:40:30.891Z,99208.09
2018-05-15T18:42:08.554Z,99207.11
2018-05-15T18:43:59.281Z,99206.95
2018-05-15T18:45:35.899Z,99210.77
2018-05-15T18:47:34.295Z,99203.74
2018-05-15T18:49:14.323Z,99207.98
2018-05-15T18:50:51.420Z,99210.49
2018-05-15T18:52:27.427Z,99200.37
2018-05-15T18:54:03.701Z,99197.31
2018-05-15T18:55:42.946Z,99206.68
2018-05-15T18:57:21.255Z,99202.39
2018-05-15T18:58:57.898Z,99197.20
2018-05-15T19:00:33.764Z,99193.92
2018-05-15T19:02:11.610Z,99194.80
2018-05-15T19:04:02.687Z,99198.80
2018-05-15T19:07:54.963Z,99200.23
2018-05-15T19:09:32.659Z,99216.47
2018-05-15T19:11:10.806Z,99207.80
2018-05-15T19:12:47.627Z,99203.45
2018-05-15T19:14:25.653Z,99204.20
2018-05-15T19:16:15.083Z,99216.55
2018-05-15T19:17:52.399Z,99210.89
2018-05-15T19:19:39.127Z,99218.63
2018-05-15T19:21:41.878Z,99217.98
2018-05-15T19:23:20.304Z,99222.84
2018-05-15T19:25:00.846Z,99227.37
2018-05-15T19:26:37.166Z,99228.73
2018-05-15T19:28:28.314Z,99236.27
2018-05-15T19:34:54.923Z,99230.32
2018-05-15T19:36:34.482Z,99240.27
2018-05-15T19:38:10.450Z,99233.56
2018-05-15T19:39:46.539Z,99235.30
2018-05-15T19:41:21.844Z,99231.75
2018-05-15T19:43:00.377Z,99228.11
2018-05-15T19:44:35.573Z,99229.95
2018-05-15T19:46:12.808Z,99234.84
2018-05-15T19:47:47.981Z,99229.06
2018-05-15T19:49:24.759Z,99238.06
2018-05-15T19:51:01.568Z,99234.05
2018-05-15T19:52:37.518Z,99242.17
2018-05-15T19:54:12.878Z,99238.39
2018-05-15T19:55:48.718Z,99239.78
2018-05-15T19:57:24.288Z,99236.52
2018-05-15T19:58:59.716Z,99233.69
2018-05-15T20:00:36.222Z,99236.89
2018-05-15T20:02:11.413Z,99238.28
2018-05-15T20:03:46.582Z,99229.88
2018-05-15T20:05:21.747Z,99230.19
2018-05-15T20:06:57.832Z,99233.53
2018-05-15T20:08:39.734Z,99229.30
2018-05-15T20:10:22.769Z,99232.03
2018-05-15T20:11:59.114Z,99233.84
2018-05-15T20:15:57.002Z,99229.80
2018-05-15T20:17:33.396Z,99231.05
2018-05-15T20:19:08.791Z,99236.03
2018-05-15T20:20:45.699Z,99240.66
2018-05-15T20:22:20.833Z,99236.12
2018-05-15T20:23:56.545Z,99239.64
2018-05-15T20:25:35.831Z,99239.95